sensor_id;sensor_type;location;lat;lon;timestamp;P1;durP1;ratioP1;P2;durP2;ratioP2
20014;SDS011;61787;42.022;23.078;2024-02-28T00:00:21;4.72;;;3.08;;
20014;SDS011;61787;42.022;23.078;2024-02-28T00:01:22;10.38;;;4.63;;
20014;SDS011;61787;42.022;23.078;2024-02-28T00:02:30;7.32;;;4.28;;
20014;SDS011;61787;42.022;23.078;2024-02-28T00:03:31;5.47;;;2.95;;
20014;SDS011;61787;42.022;23.078;2024-02-28T00:04:34;10.38;;;3.60;;
20014;SDS011;61787;42.022;23.078;2024-02-28T00:05:36;7.40;;;3.30;;
20014;SDS011;61787;42.022;23.078;2024-02-28T00:06:37;8.13;;;3.78;;
20014;SDS011;61787;42.022;23.078;2024-02-28T00:07:39;9.25;;;3.63;;
20014;SDS011;61787;42.022;23.078;2024-02-28T00:08:41;7.78;;;3.80;;
20014;SDS011;61787;42.022;23.078;2024-02-28T00:09:43;6.07;;;3.53;;
20014;SDS011;61787;42.022;23.078;2024-02-28T00:10:44;5.40;;;3.40;;
20014;SDS011;61787;42.022;23.078;2024-02-28T00:11:46;6.90;;;3.58;;
20014;SDS011;61787;42.022;23.078;2024-02-28T00:12:49;7.38;;;3.50;;
20014;SDS011;61787;42.022;23.078;2024-02-28T00:13:50;9.77;;;4.55;;
20014;SDS011;61787;42.022;23.078;2024-02-28T00:14:52;6.32;;;4.07;;
20014;SDS011;61787;42.022;23.078;2024-02-28T00:15:54;7.57;;;3.40;;
20014;SDS011;61787;42.022;23.078;2024-02-28T00:16:56;5.70;;;3.38;;
20014;SDS011;61787;42.022;23.078;2024-02-28T00:17:57;7.93;;;4.30;;
20014;SDS011;61787;42.022;23.078;2024-02-28T00:18:59;7.43;;;4.30;;
20014;SDS011;61787;42.022;23.078;2024-02-28T00:20:01;8.80;;;4.05;;
20014;SDS011;61787;42.022;23.078;2024-02-28T00:21:02;9.75;;;4.40;;
20014;SDS011;61787;42.022;23.078;2024-02-28T00:22:05;10.57;;;4.45;;
20014;SDS011;61787;42.022;23.078;2024-02-28T00:23:06;9.93;;;5.28;;
20014;SDS011;61787;42.022;23.078;2024-02-28T00:24:08;11.23;;;6.28;;
20014;SDS011;61787;42.022;23.078;2024-02-28T00:25:10;7.65;;;4.60;;
20014;SDS011;61787;42.022;23.078;2024-02-28T00:26:12;11.05;;;4.32;;
20014;SDS011;61787;42.022;23.078;2024-02-28T00:27:14;8.13;;;3.90;;
20014;SDS011;61787;42.022;23.078;2024-02-28T00:28:16;6.35;;;4.03;;
20014;SDS011;61787;42.022;23.078;2024-02-28T00:29:17;5.43;;;3.90;;
20014;SDS011;61787;42.022;23.078;2024-02-28T00:30:19;7.15;;;4.28;;
20014;SDS011;61787;42.022;23.078;2024-02-28T00:31:21;9.82;;;4.90;;
20014;SDS011;61787;42.022;23.078;2024-02-28T00:32:25;7.10;;;4.53;;
20014;SDS011;61787;42.022;23.078;2024-02-28T00:33:27;10.75;;;4.47;;
20014;SDS011;61787;42.022;23.078;2024-02-28T00:34:28;5.28;;;4.07;;
20014;SDS011;61787;42.022;23.078;2024-02-28T00:35:31;9.85;;;5.43;;
20014;SDS011;61787;42.022;23.078;2024-02-28T00:36:40;9.98;;;4.28;;
20014;SDS011;61787;42.022;23.078;2024-02-28T00:37:55;8.05;;;4.15;;
20014;SDS011;61787;42.022;23.078;2024-02-28T00:38:57;7.78;;;4.32;;
20014;SDS011;61787;42.022;23.078;2024-02-28T00:39:58;9.15;;;5.72;;
20014;SDS011;61787;42.022;23.078;2024-02-28T00:41:00;7.38;;;4.03;;
20014;SDS011;61787;42.022;23.078;2024-02-28T00:42:02;7.10;;;4.28;;
20014;SDS011;61787;42.022;23.078;2024-02-28T00:43:04;7.47;;;4.45;;
20014;SDS011;61787;42.022;23.078;2024-02-28T00:44:05;6.40;;;3.90;;
20014;SDS011;61787;42.022;23.078;2024-02-28T00:45:08;6.97;;;4.35;;
20014;SDS011;61787;42.022;23.078;2024-02-28T00:46:11;15.02;;;6.43;;
20014;SDS011;61787;42.022;23.078;2024-02-28T00:47:13;8.95;;;4.60;;
20014;SDS011;61787;42.022;23.078;2024-02-28T00:48:15;17.23;;;6.78;;
20014;SDS011;61787;42.022;23.078;2024-02-28T00:49:16;10.90;;;6.18;;
20014;SDS011;61787;42.022;23.078;2024-02-28T00:50:18;14.35;;;6.20;;
20014;SDS011;61787;42.022;23.078;2024-02-28T00:51:20;13.10;;;5.38;;
20014;SDS011;61787;42.022;23.078;2024-02-28T00:52:21;14.18;;;6.47;;
20014;SDS011;61787;42.022;23.078;2024-02-28T00:53:23;12.82;;;5.70;;
20014;SDS011;61787;42.022;23.078;2024-02-28T00:54:25;12.13;;;5.55;;
20014;SDS011;61787;42.022;23.078;2024-02-28T00:55:27;10.25;;;4.28;;
20014;SDS011;61787;42.022;23.078;2024-02-28T00:56:28;9.02;;;4.28;;
20014;SDS011;61787;42.022;23.078;2024-02-28T00:57:30;7.05;;;4.00;;
20014;SDS011;61787;42.022;23.078;2024-02-28T00:58:32;7.75;;;4.13;;
20014;SDS011;61787;42.022;23.078;2024-02-28T00:59:34;6.95;;;4.47;;
20014;SDS011;61787;42.022;23.078;2024-02-28T01:00:35;6.32;;;4.13;;
20014;SDS011;61787;42.022;23.078;2024-02-28T01:01:37;9.27;;;4.38;;
20014;SDS011;61787;42.022;23.078;2024-02-28T01:02:39;12.32;;;5.13;;
20014;SDS011;61787;42.022;23.078;2024-02-28T01:03:42;10.90;;;4.72;;
20014;SDS011;61787;42.022;23.078;2024-02-28T01:04:44;8.85;;;4.22;;
20014;SDS011;61787;42.022;23.078;2024-02-28T01:05:45;10.73;;;4.53;;
20014;SDS011;61787;42.022;23.078;2024-02-28T01:06:47;9.70;;;5.45;;
20014;SDS011;61787;42.022;23.078;2024-02-28T01:07:49;7.53;;;4.10;;
20014;SDS011;61787;42.022;23.078;2024-02-28T01:08:51;7.85;;;4.20;;
20014;SDS011;61787;42.022;23.078;2024-02-28T01:09:52;8.45;;;4.65;;
20014;SDS011;61787;42.022;23.078;2024-02-28T01:10:54;9.30;;;4.75;;
20014;SDS011;61787;42.022;23.078;2024-02-28T01:11:56;6.78;;;3.88;;
20014;SDS011;61787;42.022;23.078;2024-02-28T01:12:58;11.27;;;5.05;;
20014;SDS011;61787;42.022;23.078;2024-02-28T01:14:00;14.55;;;6.68;;
20014;SDS011;61787;42.022;23.078;2024-02-28T01:15:01;19.77;;;7.85;;
20014;SDS011;61787;42.022;23.078;2024-02-28T01:16:04;19.13;;;7.97;;
20014;SDS011;61787;42.022;23.078;2024-02-28T01:17:06;14.75;;;7.72;;
20014;SDS011;61787;42.022;23.078;2024-02-28T01:18:08;14.25;;;6.22;;
20014;SDS011;61787;42.022;23.078;2024-02-28T01:19:11;8.18;;;4.90;;
20014;SDS011;61787;42.022;23.078;2024-02-28T01:20:12;8.52;;;4.30;;
20014;SDS011;61787;42.022;23.078;2024-02-28T01:21:14;7.97;;;5.07;;
20014;SDS011;61787;42.022;23.078;2024-02-28T01:22:15;8.00;;;4.43;;
20014;SDS011;61787;42.022;23.078;2024-02-28T01:23:17;11.25;;;4.80;;
20014;SDS011;61787;42.022;23.078;2024-02-28T01:24:19;7.28;;;4.40;;
20014;SDS011;61787;42.022;23.078;2024-02-28T01:25:21;7.90;;;4.70;;
20014;SDS011;61787;42.022;23.078;2024-02-28T01:26:22;9.27;;;4.43;;
20014;SDS011;61787;42.022;23.078;2024-02-28T01:27:24;10.18;;;5.43;;
20014;SDS011;61787;42.022;23.078;2024-02-28T01:28:25;12.23;;;5.68;;
20014;SDS011;61787;42.022;23.078;2024-02-28T01:29:27;10.43;;;5.22;;
20014;SDS011;61787;42.022;23.078;2024-02-28T01:30:28;6.45;;;4.45;;
20014;SDS011;61787;42.022;23.078;2024-02-28T01:31:30;8.27;;;4.97;;
20014;SDS011;61787;42.022;23.078;2024-02-28T01:32:32;7.78;;;4.47;;
20014;SDS011;61787;42.022;23.078;2024-02-28T01:33:33;5.38;;;4.13;;
20014;SDS011;61787;42.022;23.078;2024-02-28T01:34:35;10.82;;;5.55;;
20014;SDS011;61787;42.022;23.078;2024-02-28T01:35:37;9.27;;;4.68;;
20014;SDS011;61787;42.022;23.078;2024-02-28T01:36:38;11.85;;;4.85;;
20014;SDS011;61787;42.022;23.078;2024-02-28T01:37:40;6.53;;;4.85;;
20014;SDS011;61787;42.022;23.078;2024-02-28T01:38:42;11.75;;;5.38;;
20014;SDS011;61787;42.022;23.078;2024-02-28T01:39:43;9.43;;;5.13;;
20014;SDS011;61787;42.022;23.078;2024-02-28T01:40:45;11.23;;;4.97;;
20014;SDS011;61787;42.022;23.078;2024-02-28T01:41:51;7.88;;;5.22;;
20014;SDS011;61787;42.022;23.078;2024-02-28T01:42:54;10.25;;;4.88;;
20014;SDS011;61787;42.022;23.078;2024-02-28T01:43:55;7.65;;;5.05;;
20014;SDS011;61787;42.022;23.078;2024-02-28T01:44:57;10.80;;;5.03;;
20014;SDS011;61787;42.022;23.078;2024-02-28T01:45:59;9.40;;;4.97;;
20014;SDS011;61787;42.022;23.078;2024-02-28T01:47:04;16.23;;;7.65;;
20014;SDS011;61787;42.022;23.078;2024-02-28T01:48:07;12.10;;;5.53;;
20014;SDS011;61787;42.022;23.078;2024-02-28T01:49:12;12.98;;;7.50;;
20014;SDS011;61787;42.022;23.078;2024-02-28T01:50:16;19.50;;;7.95;;
20014;SDS011;61787;42.022;23.078;2024-02-28T01:51:17;15.15;;;7.45;;
20014;SDS011;61787;42.022;23.078;2024-02-28T01:52:19;12.25;;;6.68;;
20014;SDS011;61787;42.022;23.078;2024-02-28T01:53:22;13.68;;;6.63;;
20014;SDS011;61787;42.022;23.078;2024-02-28T01:54:24;11.88;;;5.88;;
20014;SDS011;61787;42.022;23.078;2024-02-28T01:55:28;10.35;;;6.00;;
20014;SDS011;61787;42.022;23.078;2024-02-28T01:56:30;9.50;;;6.40;;
20014;SDS011;61787;42.022;23.078;2024-02-28T01:57:32;11.95;;;5.93;;
20014;SDS011;61787;42.022;23.078;2024-02-28T01:58:34;14.40;;;6.38;;
20014;SDS011;61787;42.022;23.078;2024-02-28T01:59:36;12.90;;;7.72;;
20014;SDS011;61787;42.022;23.078;2024-02-28T02:00:38;10.90;;;7.07;;
20014;SDS011;61787;42.022;23.078;2024-02-28T02:01:41;11.02;;;7.03;;
20014;SDS011;61787;42.022;23.078;2024-02-28T02:02:43;12.77;;;6.95;;
20014;SDS011;61787;42.022;23.078;2024-02-28T02:03:44;14.30;;;7.45;;
20014;SDS011;61787;42.022;23.078;2024-02-28T02:04:47;10.68;;;6.28;;
20014;SDS011;61787;42.022;23.078;2024-02-28T02:05:48;13.00;;;6.80;;
20014;SDS011;61787;42.022;23.078;2024-02-28T02:06:50;11.38;;;6.88;;
20014;SDS011;61787;42.022;23.078;2024-02-28T02:07:56;13.55;;;7.22;;
20014;SDS011;61787;42.022;23.078;2024-02-28T02:08:59;9.48;;;6.90;;
20014;SDS011;61787;42.022;23.078;2024-02-28T02:10:02;12.95;;;7.38;;
20014;SDS011;61787;42.022;23.078;2024-02-28T02:11:09;11.02;;;6.88;;
20014;SDS011;61787;42.022;23.078;2024-02-28T02:12:11;13.38;;;6.18;;
20014;SDS011;61787;42.022;23.078;2024-02-28T02:13:12;13.45;;;6.43;;
20014;SDS011;61787;42.022;23.078;2024-02-28T02:14:14;10.57;;;6.85;;
20014;SDS011;61787;42.022;23.078;2024-02-28T02:15:15;13.07;;;7.40;;
20014;SDS011;61787;42.022;23.078;2024-02-28T02:16:20;10.60;;;7.13;;
20014;SDS011;61787;42.022;23.078;2024-02-28T02:17:28;9.68;;;6.70;;
20014;SDS011;61787;42.022;23.078;2024-02-28T02:18:29;10.48;;;6.20;;
20014;SDS011;61787;42.022;23.078;2024-02-28T02:19:31;8.70;;;6.30;;
20014;SDS011;61787;42.022;23.078;2024-02-28T02:20:33;8.85;;;6.18;;
20014;SDS011;61787;42.022;23.078;2024-02-28T02:21:41;11.27;;;6.38;;
20014;SDS011;61787;42.022;23.078;2024-02-28T02:22:52;9.50;;;5.97;;
20014;SDS011;61787;42.022;23.078;2024-02-28T02:23:54;9.38;;;5.55;;
20014;SDS011;61787;42.022;23.078;2024-02-28T02:24:56;7.28;;;5.70;;
20014;SDS011;61787;42.022;23.078;2024-02-28T02:25:58;8.45;;;6.15;;
20014;SDS011;61787;42.022;23.078;2024-02-28T02:26:59;8.57;;;5.68;;
20014;SDS011;61787;42.022;23.078;2024-02-28T02:28:01;13.02;;;6.45;;
20014;SDS011;61787;42.022;23.078;2024-02-28T02:29:03;9.07;;;6.13;;
20014;SDS011;61787;42.022;23.078;2024-02-28T02:30:05;10.52;;;6.18;;
20014;SDS011;61787;42.022;23.078;2024-02-28T02:31:07;11.30;;;6.65;;
20014;SDS011;61787;42.022;23.078;2024-02-28T02:32:09;11.68;;;6.80;;
20014;SDS011;61787;42.022;23.078;2024-02-28T02:33:11;11.40;;;7.18;;
20014;SDS011;61787;42.022;23.078;2024-02-28T02:34:13;14.05;;;6.28;;
20014;SDS011;61787;42.022;23.078;2024-02-28T02:35:14;14.23;;;7.05;;
20014;SDS011;61787;42.022;23.078;2024-02-28T02:36:16;11.15;;;6.95;;
20014;SDS011;61787;42.022;23.078;2024-02-28T02:37:19;9.07;;;6.35;;
20014;SDS011;61787;42.022;23.078;2024-02-28T02:38:20;9.38;;;6.25;;
20014;SDS011;61787;42.022;23.078;2024-02-28T02:39:22;8.25;;;5.50;;
20014;SDS011;61787;42.022;23.078;2024-02-28T02:40:24;13.00;;;6.60;;
20014;SDS011;61787;42.022;23.078;2024-02-28T02:41:25;8.75;;;6.25;;
20014;SDS011;61787;42.022;23.078;2024-02-28T02:42:27;12.93;;;6.38;;
20014;SDS011;61787;42.022;23.078;2024-02-28T02:43:28;13.18;;;7.85;;
20014;SDS011;61787;42.022;23.078;2024-02-28T02:44:30;9.68;;;5.95;;
20014;SDS011;61787;42.022;23.078;2024-02-28T02:45:32;13.95;;;6.43;;
20014;SDS011;61787;42.022;23.078;2024-02-28T02:46:33;7.75;;;5.90;;
20014;SDS011;61787;42.022;23.078;2024-02-28T02:47:35;11.23;;;5.78;;
20014;SDS011;61787;42.022;23.078;2024-02-28T02:48:38;10.05;;;6.55;;
20014;SDS011;61787;42.022;23.078;2024-02-28T02:49:39;11.30;;;5.97;;
20014;SDS011;61787;42.022;23.078;2024-02-28T02:50:41;8.73;;;5.70;;
20014;SDS011;61787;42.022;23.078;2024-02-28T02:51:43;16.67;;;7.50;;
20014;SDS011;61787;42.022;23.078;2024-02-28T02:52:45;8.13;;;5.75;;
20014;SDS011;61787;42.022;23.078;2024-02-28T02:53:46;7.07;;;5.47;;
20014;SDS011;61787;42.022;23.078;2024-02-28T02:54:48;9.93;;;6.03;;
20014;SDS011;61787;42.022;23.078;2024-02-28T02:55:49;9.68;;;5.43;;
20014;SDS011;61787;42.022;23.078;2024-02-28T02:56:51;13.82;;;6.82;;
20014;SDS011;61787;42.022;23.078;2024-02-28T02:57:53;11.73;;;6.00;;
20014;SDS011;61787;42.022;23.078;2024-02-28T02:58:56;10.07;;;6.00;;
20014;SDS011;61787;42.022;23.078;2024-02-28T02:59:57;7.90;;;5.57;;
20014;SDS011;61787;42.022;23.078;2024-02-28T03:00:59;9.35;;;6.00;;
20014;SDS011;61787;42.022;23.078;2024-02-28T03:02:01;8.75;;;5.78;;
20014;SDS011;61787;42.022;23.078;2024-02-28T03:03:02;10.98;;;6.13;;
20014;SDS011;61787;42.022;23.078;2024-02-28T03:04:04;10.93;;;6.93;;
20014;SDS011;61787;42.022;23.078;2024-02-28T03:05:06;9.40;;;6.13;;
20014;SDS011;61787;42.022;23.078;2024-02-28T03:06:08;10.73;;;5.65;;
20014;SDS011;61787;42.022;23.078;2024-02-28T03:07:11;11.38;;;6.25;;
20014;SDS011;61787;42.022;23.078;2024-02-28T03:08:13;12.13;;;5.95;;
20014;SDS011;61787;42.022;23.078;2024-02-28T03:09:14;8.77;;;5.13;;
20014;SDS011;61787;42.022;23.078;2024-02-28T03:10:16;7.80;;;4.32;;
20014;SDS011;61787;42.022;23.078;2024-02-28T03:11:18;6.60;;;4.80;;
20014;SDS011;61787;42.022;23.078;2024-02-28T03:12:19;7.35;;;4.60;;
20014;SDS011;61787;42.022;23.078;2024-02-28T03:13:23;10.93;;;5.65;;
20014;SDS011;61787;42.022;23.078;2024-02-28T03:14:24;11.75;;;6.63;;
20014;SDS011;61787;42.022;23.078;2024-02-28T03:15:28;10.48;;;6.28;;
20014;SDS011;61787;42.022;23.078;2024-02-28T03:16:30;11.27;;;6.60;;
20014;SDS011;61787;42.022;23.078;2024-02-28T03:17:31;9.48;;;6.43;;
20014;SDS011;61787;42.022;23.078;2024-02-28T03:18:33;11.52;;;6.53;;
20014;SDS011;61787;42.022;23.078;2024-02-28T03:19:35;11.02;;;6.68;;
20014;SDS011;61787;42.022;23.078;2024-02-28T03:20:37;12.55;;;7.70;;
20014;SDS011;61787;42.022;23.078;2024-02-28T03:21:40;12.15;;;6.75;;
20014;SDS011;61787;42.022;23.078;2024-02-28T03:22:42;12.07;;;6.50;;
20014;SDS011;61787;42.022;23.078;2024-02-28T03:23:44;8.93;;;6.68;;
20014;SDS011;61787;42.022;23.078;2024-02-28T03:24:45;10.75;;;6.32;;
20014;SDS011;61787;42.022;23.078;2024-02-28T03:25:47;9.07;;;6.50;;
20014;SDS011;61787;42.022;23.078;2024-02-28T03:26:49;11.07;;;5.97;;
20014;SDS011;61787;42.022;23.078;2024-02-28T03:27:51;10.20;;;6.55;;
20014;SDS011;61787;42.022;23.078;2024-02-28T03:28:53;10.57;;;6.55;;
20014;SDS011;61787;42.022;23.078;2024-02-28T03:29:55;10.35;;;6.32;;
20014;SDS011;61787;42.022;23.078;2024-02-28T03:30:56;10.75;;;5.88;;
20014;SDS011;61787;42.022;23.078;2024-02-28T03:31:58;8.32;;;6.53;;
20014;SDS011;61787;42.022;23.078;2024-02-28T03:33:00;10.25;;;6.55;;
20014;SDS011;61787;42.022;23.078;2024-02-28T03:34:01;9.20;;;5.85;;
20014;SDS011;61787;42.022;23.078;2024-02-28T03:35:03;10.13;;;6.90;;
20014;SDS011;61787;42.022;23.078;2024-02-28T03:36:06;11.90;;;6.38;;
20014;SDS011;61787;42.022;23.078;2024-02-28T03:37:08;9.95;;;6.90;;
20014;SDS011;61787;42.022;23.078;2024-02-28T03:38:10;9.65;;;6.88;;
20014;SDS011;61787;42.022;23.078;2024-02-28T03:39:11;9.10;;;6.95;;
20014;SDS011;61787;42.022;23.078;2024-02-28T03:40:13;10.20;;;6.40;;
20014;SDS011;61787;42.022;23.078;2024-02-28T03:41:16;10.38;;;6.53;;
20014;SDS011;61787;42.022;23.078;2024-02-28T03:42:17;8.45;;;6.03;;
20014;SDS011;61787;42.022;23.078;2024-02-28T03:43:19;12.40;;;6.45;;
20014;SDS011;61787;42.022;23.078;2024-02-28T03:44:20;8.32;;;6.35;;
20014;SDS011;61787;42.022;23.078;2024-02-28T03:45:22;11.45;;;6.38;;
20014;SDS011;61787;42.022;23.078;2024-02-28T03:46:24;10.73;;;6.85;;
20014;SDS011;61787;42.022;23.078;2024-02-28T03:47:26;12.40;;;6.95;;
20014;SDS011;61787;42.022;23.078;2024-02-28T03:48:28;9.20;;;6.28;;
20014;SDS011;61787;42.022;23.078;2024-02-28T03:49:29;11.73;;;6.63;;
20014;SDS011;61787;42.022;23.078;2024-02-28T03:50:31;7.70;;;5.78;;
20014;SDS011;61787;42.022;23.078;2024-02-28T03:51:38;9.55;;;5.85;;
20014;SDS011;61787;42.022;23.078;2024-02-28T03:52:41;9.00;;;6.10;;
20014;SDS011;61787;42.022;23.078;2024-02-28T03:53:42;9.68;;;5.82;;
20014;SDS011;61787;42.022;23.078;2024-02-28T03:54:44;8.55;;;5.55;;
20014;SDS011;61787;42.022;23.078;2024-02-28T03:55:46;9.07;;;5.00;;
20014;SDS011;61787;42.022;23.078;2024-02-28T03:56:47;9.70;;;5.45;;
20014;SDS011;61787;42.022;23.078;2024-02-28T03:57:49;10.60;;;4.85;;
20014;SDS011;61787;42.022;23.078;2024-02-28T03:58:53;9.25;;;5.18;;
20014;SDS011;61787;42.022;23.078;2024-02-28T03:59:55;9.32;;;5.53;;
20014;SDS011;61787;42.022;23.078;2024-02-28T04:00:56;8.07;;;5.60;;
20014;SDS011;61787;42.022;23.078;2024-02-28T04:01:58;9.23;;;5.20;;
20014;SDS011;61787;42.022;23.078;2024-02-28T04:03:00;9.43;;;5.47;;
20014;SDS011;61787;42.022;23.078;2024-02-28T04:04:01;9.85;;;6.00;;
20014;SDS011;61787;42.022;23.078;2024-02-28T04:05:03;7.75;;;4.65;;
20014;SDS011;61787;42.022;23.078;2024-02-28T04:06:05;8.75;;;6.32;;
20014;SDS011;61787;42.022;23.078;2024-02-28T04:07:07;10.23;;;6.32;;
20014;SDS011;61787;42.022;23.078;2024-02-28T04:08:09;8.93;;;7.10;;
20014;SDS011;61787;42.022;23.078;2024-02-28T04:09:10;9.77;;;7.40;;
20014;SDS011;61787;42.022;23.078;2024-02-28T04:10:12;14.18;;;7.10;;
20014;SDS011;61787;42.022;23.078;2024-02-28T04:11:14;13.88;;;8.10;;
20014;SDS011;61787;42.022;23.078;2024-02-28T04:12:15;10.55;;;7.70;;
20014;SDS011;61787;42.022;23.078;2024-02-28T04:13:17;11.32;;;7.47;;
20014;SDS011;61787;42.022;23.078;2024-02-28T04:14:18;13.68;;;7.88;;
20014;SDS011;61787;42.022;23.078;2024-02-28T04:15:20;12.52;;;8.27;;
20014;SDS011;61787;42.022;23.078;2024-02-28T04:16:22;12.15;;;7.28;;
20014;SDS011;61787;42.022;23.078;2024-02-28T04:17:23;12.25;;;7.55;;
20014;SDS011;61787;42.022;23.078;2024-02-28T04:18:25;13.52;;;8.60;;
20014;SDS011;61787;42.022;23.078;2024-02-28T04:19:26;13.90;;;8.20;;
20014;SDS011;61787;42.022;23.078;2024-02-28T04:20:28;13.13;;;7.78;;
20014;SDS011;61787;42.022;23.078;2024-02-28T04:21:30;9.52;;;7.20;;
20014;SDS011;61787;42.022;23.078;2024-02-28T04:22:31;11.73;;;7.85;;
20014;SDS011;61787;42.022;23.078;2024-02-28T04:23:33;9.65;;;5.80;;
20014;SDS011;61787;42.022;23.078;2024-02-28T04:24:35;9.20;;;6.30;;
20014;SDS011;61787;42.022;23.078;2024-02-28T04:25:36;12.02;;;7.25;;
20014;SDS011;61787;42.022;23.078;2024-02-28T04:26:41;10.07;;;7.38;;
20014;SDS011;61787;42.022;23.078;2024-02-28T04:27:43;9.52;;;7.03;;
20014;SDS011;61787;42.022;23.078;2024-02-28T04:28:45;12.68;;;6.95;;
20014;SDS011;61787;42.022;23.078;2024-02-28T04:29:47;13.13;;;6.47;;
20014;SDS011;61787;42.022;23.078;2024-02-28T04:30:48;9.98;;;6.07;;
20014;SDS011;61787;42.022;23.078;2024-02-28T04:31:50;9.32;;;5.85;;
20014;SDS011;61787;42.022;23.078;2024-02-28T04:32:51;12.27;;;6.93;;
20014;SDS011;61787;42.022;23.078;2024-02-28T04:33:53;8.82;;;5.93;;
20014;SDS011;61787;42.022;23.078;2024-02-28T04:34:55;8.35;;;6.57;;
20014;SDS011;61787;42.022;23.078;2024-02-28T04:35:56;10.65;;;6.55;;
20014;SDS011;61787;42.022;23.078;2024-02-28T04:36:58;10.32;;;5.95;;
20014;SDS011;61787;42.022;23.078;2024-02-28T04:38:00;11.02;;;6.40;;
20014;SDS011;61787;42.022;23.078;2024-02-28T04:39:02;12.38;;;7.22;;
20014;SDS011;61787;42.022;23.078;2024-02-28T04:40:05;11.70;;;7.30;;
20014;SDS011;61787;42.022;23.078;2024-02-28T04:41:08;12.73;;;7.25;;
20014;SDS011;61787;42.022;23.078;2024-02-28T04:42:09;14.40;;;7.47;;
20014;SDS011;61787;42.022;23.078;2024-02-28T04:43:11;11.88;;;6.82;;
20014;SDS011;61787;42.022;23.078;2024-02-28T04:44:12;13.85;;;7.22;;
20014;SDS011;61787;42.022;23.078;2024-02-28T04:45:14;9.45;;;6.95;;
20014;SDS011;61787;42.022;23.078;2024-02-28T04:46:16;12.95;;;7.85;;
20014;SDS011;61787;42.022;23.078;2024-02-28T04:47:17;12.15;;;7.22;;
20014;SDS011;61787;42.022;23.078;2024-02-28T04:48:26;12.85;;;6.82;;
20014;SDS011;61787;42.022;23.078;2024-02-28T04:49:28;9.00;;;6.45;;
20014;SDS011;61787;42.022;23.078;2024-02-28T04:50:30;7.50;;;6.07;;
20014;SDS011;61787;42.022;23.078;2024-02-28T04:51:31;11.50;;;7.55;;
20014;SDS011;61787;42.022;23.078;2024-02-28T04:52:33;11.05;;;7.28;;
20014;SDS011;61787;42.022;23.078;2024-02-28T04:53:35;13.38;;;8.00;;
20014;SDS011;61787;42.022;23.078;2024-02-28T04:54:39;10.55;;;7.10;;
20014;SDS011;61787;42.022;23.078;2024-02-28T04:55:41;12.57;;;7.65;;
20014;SDS011;61787;42.022;23.078;2024-02-28T04:56:43;10.90;;;7.03;;
20014;SDS011;61787;42.022;23.078;2024-02-28T04:57:45;14.50;;;8.20;;
20014;SDS011;61787;42.022;23.078;2024-02-28T04:58:47;11.63;;;7.88;;
20014;SDS011;61787;42.022;23.078;2024-02-28T04:59:48;9.82;;;6.40;;
20014;SDS011;61787;42.022;23.078;2024-02-28T05:00:50;12.45;;;7.72;;
20014;SDS011;61787;42.022;23.078;2024-02-28T05:01:52;11.77;;;7.47;;
20014;SDS011;61787;42.022;23.078;2024-02-28T05:02:54;13.77;;;7.97;;
20014;SDS011;61787;42.022;23.078;2024-02-28T05:03:56;17.33;;;9.43;;
20014;SDS011;61787;42.022;23.078;2024-02-28T05:04:57;13.98;;;8.82;;
20014;SDS011;61787;42.022;23.078;2024-02-28T05:06:00;15.32;;;8.90;;
20014;SDS011;61787;42.022;23.078;2024-02-28T05:07:01;17.05;;;9.23;;
20014;SDS011;61787;42.022;23.078;2024-02-28T05:08:04;15.77;;;9.13;;
20014;SDS011;61787;42.022;23.078;2024-02-28T05:09:05;19.77;;;9.45;;
20014;SDS011;61787;42.022;23.078;2024-02-28T05:10:07;13.70;;;9.65;;
20014;SDS011;61787;42.022;23.078;2024-02-28T05:11:09;11.68;;;8.23;;
20014;SDS011;61787;42.022;23.078;2024-02-28T05:12:11;13.52;;;8.57;;
20014;SDS011;61787;42.022;23.078;2024-02-28T05:13:13;16.95;;;8.07;;
20014;SDS011;61787;42.022;23.078;2024-02-28T05:14:15;16.50;;;8.82;;
20014;SDS011;61787;42.022;23.078;2024-02-28T05:15:16;15.68;;;9.05;;
20014;SDS011;61787;42.022;23.078;2024-02-28T05:16:18;13.93;;;8.55;;
20014;SDS011;61787;42.022;23.078;2024-02-28T05:17:20;13.68;;;8.65;;
20014;SDS011;61787;42.022;23.078;2024-02-28T05:18:22;14.23;;;9.57;;
20014;SDS011;61787;42.022;23.078;2024-02-28T05:19:24;15.55;;;9.02;;
20014;SDS011;61787;42.022;23.078;2024-02-28T05:20:25;15.35;;;8.38;;
20014;SDS011;61787;42.022;23.078;2024-02-28T05:21:27;15.40;;;8.63;;
20014;SDS011;61787;42.022;23.078;2024-02-28T05:22:29;14.35;;;9.05;;
20014;SDS011;61787;42.022;23.078;2024-02-28T05:23:31;16.70;;;8.88;;
20014;SDS011;61787;42.022;23.078;2024-02-28T05:24:32;11.82;;;9.00;;
20014;SDS011;61787;42.022;23.078;2024-02-28T05:25:34;13.65;;;8.88;;
20014;SDS011;61787;42.022;23.078;2024-02-28T05:26:36;15.18;;;8.85;;
20014;SDS011;61787;42.022;23.078;2024-02-28T05:27:38;13.50;;;9.25;;
20014;SDS011;61787;42.022;23.078;2024-02-28T05:28:39;11.50;;;8.10;;
20014;SDS011;61787;42.022;23.078;2024-02-28T05:29:41;12.73;;;8.65;;
20014;SDS011;61787;42.022;23.078;2024-02-28T05:30:44;14.40;;;9.25;;
20014;SDS011;61787;42.022;23.078;2024-02-28T05:31:50;14.18;;;9.10;;
20014;SDS011;61787;42.022;23.078;2024-02-28T05:32:51;12.82;;;8.60;;
20014;SDS011;61787;42.022;23.078;2024-02-28T05:33:53;15.82;;;8.57;;
20014;SDS011;61787;42.022;23.078;2024-02-28T05:34:57;16.23;;;9.18;;
20014;SDS011;61787;42.022;23.078;2024-02-28T05:36:00;14.52;;;9.60;;
20014;SDS011;61787;42.022;23.078;2024-02-28T05:37:01;12.60;;;9.15;;
20014;SDS011;61787;42.022;23.078;2024-02-28T05:38:03;16.08;;;10.00;;
20014;SDS011;61787;42.022;23.078;2024-02-28T05:39:05;13.90;;;8.70;;
20014;SDS011;61787;42.022;23.078;2024-02-28T05:40:07;11.88;;;8.73;;
20014;SDS011;61787;42.022;23.078;2024-02-28T05:41:10;15.18;;;9.77;;
20014;SDS011;61787;42.022;23.078;2024-02-28T05:42:12;17.85;;;10.13;;
20014;SDS011;61787;42.022;23.078;2024-02-28T05:43:13;11.93;;;8.88;;
20014;SDS011;61787;42.022;23.078;2024-02-28T05:44:15;13.52;;;9.55;;
20014;SDS011;61787;42.022;23.078;2024-02-28T05:45:16;13.80;;;9.25;;
20014;SDS011;61787;42.022;23.078;2024-02-28T05:46:18;18.35;;;10.52;;
20014;SDS011;61787;42.022;23.078;2024-02-28T05:47:21;16.83;;;9.63;;
20014;SDS011;61787;42.022;23.078;2024-02-28T05:48:26;15.88;;;9.45;;
20014;SDS011;61787;42.022;23.078;2024-02-28T05:49:27;17.88;;;10.25;;
20014;SDS011;61787;42.022;23.078;2024-02-28T05:50:29;16.95;;;10.60;;
20014;SDS011;61787;42.022;23.078;2024-02-28T05:51:31;22.30;;;10.02;;
20014;SDS011;61787;42.022;23.078;2024-02-28T05:52:33;15.93;;;10.80;;
20014;SDS011;61787;42.022;23.078;2024-02-28T05:53:34;18.73;;;10.68;;
20014;SDS011;61787;42.022;23.078;2024-02-28T05:54:37;18.98;;;11.20;;
20014;SDS011;61787;42.022;23.078;2024-02-28T05:55:39;22.33;;;12.18;;
20014;SDS011;61787;42.022;23.078;2024-02-28T05:56:40;26.27;;;11.18;;
20014;SDS011;61787;42.022;23.078;2024-02-28T05:57:42;17.58;;;10.73;;
20014;SDS011;61787;42.022;23.078;2024-02-28T05:58:44;20.58;;;11.50;;
20014;SDS011;61787;42.022;23.078;2024-02-28T05:59:46;26.63;;;12.57;;
20014;SDS011;61787;42.022;23.078;2024-02-28T06:00:48;18.95;;;11.38;;
20014;SDS011;61787;42.022;23.078;2024-02-28T06:01:50;27.98;;;11.32;;
20014;SDS011;61787;42.022;23.078;2024-02-28T06:02:52;21.60;;;11.48;;
20014;SDS011;61787;42.022;23.078;2024-02-28T06:03:53;19.48;;;10.70;;
20014;SDS011;61787;42.022;23.078;2024-02-28T06:04:55;20.13;;;12.35;;